Augusta — WDH7692 — position and weather

sailwx.info

Track history (hours):
 
Tides and Currents Weather Stations Pressure Air Temp Water Temp Dewpoint Dewpoint Depression Visibility Wind Speed Wind Dir Waves Ship Positions

Augusta

Owner: Monteiro Fleet , Inc., Houma, LA. More information available from US FCC via Universal Licensing System and Coast Guard Vessel Documentation Center.

Last reported at 2017-Sep-21 07:41 UTC. Time now 2017-Sep-23 03:49 UTC.
Position N 29°34' W 090°57'.

MMSI: 367650670.

Date/timePositionNaut miles runAvg speedWind from/ knotsBaromVisibWave heightAir tempDewpointWater temp
2017-Sep-21 07:41N 29°34' W 090°57'1 2.5
2017-Sep-21 07:24N 29°34' W 090°56'1 2.5
2017-Sep-21 07:00N 29°33' W 090°55'1 2.4
2017-Sep-21 06:26N 29°33' W 090°54'1 2.4
2017-Sep-21 05:57N 29°32' W 090°53'1 2.4
2017-Sep-21 05:28N 29°32' W 090°51'1 2.4
2017-Sep-21 05:00N 29°32' W 090°50'66 6.1
2017-Sep-20 18:12N 29°49' W 092°03'1 7.3
2017-Sep-20 18:00N 29°48' W 092°05'3 7.0
2017-Sep-20 17:31N 29°47' W 092°09'3 5.4
2017-Sep-20 17:00N 29°47' W 092°12'1 2.4
2017-Sep-20 16:30N 29°47' W 092°13'4 7.3
2017-Sep-20 15:59N 29°49' W 092°17'41 5.5
2017-Sep-20 08:34N 29°56' W 093°03'1 7.1
2017-Sep-20 08:27N 29°56' W 093°04'3 7.3
2017-Sep-20 08:00N 29°56' W 093°08'3 6.9
2017-Sep-20 07:30N 29°58' W 093°11'3 6.8
2017-Sep-20 07:00N 30°01' W 093°14'3 6.0
2017-Sep-20 06:31N 30°03' W 093°16'3 5.5
2017-Sep-20 06:00N 30°05' W 093°18'0 1.0
2017-Sep-20 05:31N 30°06' W 093°18'0 0.1
2017-Sep-20 05:01N 30°06' W 093°18'3 6.5
2017-Sep-20 04:31N 30°04' W 093°21'4 7.1
2017-Sep-20 04:01N 30°04' W 093°25'4 7.9
2017-Sep-20 03:30N 30°04' W 093°30'4 0.1
2017-Sep-18 14:01N 30°04' W 093°35'1 5.5
2017-Sep-18 13:49N 30°04' W 093°33'2 5.7
2017-Sep-18 13:30N 30°04' W 093°31'3 5.7
2017-Sep-18 13:00N 30°04' W 093°28'3 5.7
2017-Sep-18 12:30N 30°04' W 093°25'3 5.7
2017-Sep-18 12:00N 30°04' W 093°21'2 3.7
2017-Sep-18 11:30N 30°05' W 093°20'2 4.3
2017-Sep-18 11:00N 30°05' W 093°18'2 4.5
2017-Sep-18 10:30N 30°04' W 093°16'2 4.7
2017-Sep-18 10:00N 30°02' W 093°14'2 3.3
2017-Sep-18 09:30N 30°00' W 093°14'3 6.2
2017-Sep-18 09:00N 29°58' W 093°11'3 5.8
2017-Sep-18 08:30N 29°56' W 093°09'43 5.5
2017-Sep-18 00:36N 29°50' W 092°19'1 5.5
2017-Sep-18 00:28N 29°50' W 092°18'3 5.4
2017-Sep-17 23:52N 29°48' W 092°15'2 5.9
2017-Sep-17 23:30N 29°47' W 092°13'2 4.6
2017-Sep-17 23:00N 29°47' W 092°11'3 5.7
2017-Sep-17 22:30N 29°47' W 092°07'3 5.6
2017-Sep-17 21:57N 29°48' W 092°04'65 5.1
2017-Sep-17 09:13N 29°32' W 090°52'1 5.5
2017-Sep-17 09:00N 29°32' W 090°51'3 5.4
2017-Sep-17 08:30N 29°32' W 090°48'2 4.6
2017-Sep-17 08:00N 29°33' W 090°45'2 4.7
2017-Sep-17 07:30N 29°34' W 090°43'2 4.6
2017-Sep-17 07:00N 29°37' W 090°42'3 5.2
2017-Sep-17 06:30N 29°36' W 090°40'3 5.5
2017-Sep-17 06:00N 29°35' W 090°37'3 5.3
2017-Sep-17 05:30N 29°34' W 090°34'4 5.5
2017-Sep-17 04:51N 29°34' W 090°30'2 0.1
2017-Sep-16 01:52N 29°34' W 090°32'3 7.3
2017-Sep-16 01:30N 29°35' W 090°35'3 5.3
2017-Sep-16 01:00N 29°35' W 090°38'3 6.6
2017-Sep-16 00:30N 29°37' W 090°41'2 4.1
2017-Sep-16 00:00N 29°35' W 090°43'1 2.0
2017-Sep-15 23:30N 29°34' W 090°43'0 0.7
2017-Sep-15 23:00N 29°34' W 090°43'0 0.2
2017-Sep-15 22:30N 29°34' W 090°43'0 0.0
2017-Sep-15 22:00N 29°34' W 090°43'0 0.0
2017-Sep-15 21:30N 29°34' W 090°43'0 0.0
2017-Sep-15 21:00N 29°34' W 090°43'0 0.0
2017-Sep-15 20:30N 29°34' W 090°43'0 0.0
2017-Sep-15 20:00N 29°34' W 090°43'0 0.0
2017-Sep-15 19:30N 29°34' W 090°43'0 0.0
2017-Sep-15 19:00N 29°34' W 090°43'0 0.0
2017-Sep-15 18:30N 29°34' W 090°43'0 0.0
2017-Sep-15 18:00N 29°34' W 090°43'0 0.0
2017-Sep-15 17:30N 29°34' W 090°43'0 0.0
2017-Sep-15 17:00N 29°34' W 090°43'0 0.0
2017-Sep-15 16:30N 29°34' W 090°43'0 0.0
2017-Sep-15 16:00N 29°34' W 090°43'0 0.0
2017-Sep-15 15:30N 29°34' W 090°43'0 0.0
2017-Sep-15 15:00N 29°34' W 090°43'0 0.0
2017-Sep-15 14:30N 29°34' W 090°43'0 0.0
2017-Sep-15 14:00N 29°34' W 090°43'0 0.0
2017-Sep-15 13:30N 29°34' W 090°43'0 0.0
2017-Sep-15 13:00N 29°34' W 090°43'0 0.0
2017-Sep-15 12:30N 29°34' W 090°43'0 0.0
2017-Sep-15 12:00N 29°34' W 090°43'0 0.0
2017-Sep-15 11:30N 29°34' W 090°43'0 0.0
2017-Sep-15 11:00N 29°34' W 090°43'0 0.0
2017-Sep-15 10:30N 29°34' W 090°43'0 0.0
2017-Sep-15 10:00N 29°34' W 090°43'0 0.0
2017-Sep-15 09:30N 29°34' W 090°43'0 0.0
2017-Sep-15 09:00N 29°34' W 090°43'0 0.0
2017-Sep-15 08:30N 29°34' W 090°43'0 0.0
2017-Sep-15 08:00N 29°34' W 090°43'0 0.0
2017-Sep-15 07:30N 29°34' W 090°43'0 0.0
2017-Sep-15 07:00N 29°34' W 090°43'0 0.0
2017-Sep-15 06:30N 29°34' W 090°43'0 0.0
2017-Sep-15 06:00N 29°34' W 090°43'0 0.0
2017-Sep-15 05:30N 29°34' W 090°43'0 0.0
2017-Sep-15 05:00N 29°34' W 090°43'0 0.0
2017-Sep-15 04:30N 29°34' W 090°43'0 0.0
2017-Sep-15 04:00N 29°34' W 090°43'0 0.0
2017-Sep-15 03:30N 29°34' W 090°43'0 0.0
2017-Sep-15 03:00N 29°34' W 090°43'0 0.0
2017-Sep-15 02:30N 29°34' W 090°43'0 0.0
2017-Sep-15 02:00N 29°34' W 090°43'0 0.0
2017-Sep-15 01:30N 29°34' W 090°43'0 0.0
2017-Sep-15 01:00N 29°34' W 090°43'0 0.0
2017-Sep-15 00:30N 29°34' W 090°43'0 0.0
2017-Sep-15 00:00N 29°34' W 090°43'0 0.0
2017-Sep-14 23:30N 29°34' W 090°43'0 0.0
2017-Sep-14 23:00N 29°34' W 090°43'0 0.0
2017-Sep-14 22:30N 29°34' W 090°43'0 0.0
2017-Sep-14 22:00N 29°34' W 090°43'0 0.0
2017-Sep-14 21:30N 29°34' W 090°43'0 0.0
2017-Sep-14 21:00N 29°34' W 090°43'0 0.0
2017-Sep-14 20:30N 29°34' W 090°43'0 0.0
2017-Sep-14 20:00N 29°34' W 090°43'0 0.0
2017-Sep-14 19:30N 29°34' W 090°43'0 0.0
2017-Sep-14 19:00N 29°34' W 090°43'0 0.0
2017-Sep-14 18:30N 29°34' W 090°43'0 0.0
2017-Sep-14 18:00N 29°34' W 090°43'0 0.0
2017-Sep-14 17:30N 29°34' W 090°43'0 0.0
2017-Sep-14 17:00N 29°34' W 090°43'0 0.0
2017-Sep-14 16:30N 29°34' W 090°43'0 0.0
2017-Sep-14 16:00N 29°34' W 090°43'0 0.0
2017-Sep-14 15:30N 29°34' W 090°43'0 0.0
2017-Sep-14 15:00N 29°34' W 090°43'0 0.0
2017-Sep-14 14:30N 29°34' W 090°43'2 3.5
2017-Sep-14 14:00N 29°33' W 090°42'0 0.3
2017-Sep-14 13:30N 29°32' W 090°42'0 0.7
2017-Sep-14 13:00N 29°33' W 090°42'0 0.0
2017-Sep-14 12:30N 29°33' W 090°42'0 0.1
2017-Sep-14 12:00N 29°33' W 090°42'0 0.3
2017-Sep-14 11:30N 29°33' W 090°42'0 0.0
2017-Sep-14 11:00N 29°33' W 090°42'0 0.0
2017-Sep-14 10:30N 29°33' W 090°42'0 0.0
2017-Sep-14 10:00N 29°33' W 090°42'0 0.0
2017-Sep-14 09:30N 29°33' W 090°42'0 0.0
2017-Sep-14 09:00N 29°33' W 090°42'0 0.0
2017-Sep-14 08:30N 29°33' W 090°42'0 0.0
2017-Sep-14 08:00N 29°33' W 090°42'0 0.0
2017-Sep-14 07:30N 29°33' W 090°42'0 0.0
2017-Sep-14 07:00N 29°33' W 090°42'0 0.0
2017-Sep-14 06:30N 29°33' W 090°42'0 0.0
2017-Sep-14 06:00N 29°33' W 090°42'0 0.0
2017-Sep-14 05:30N 29°33' W 090°42'1 1.9
2017-Sep-14 05:00N 29°33' W 090°43'2 5.0
2017-Sep-14 04:30N 29°33' W 090°45'4 7.4
2017-Sep-14 04:00N 29°32' W 090°50'5 8.0
2017-Sep-14 03:23N 29°33' W 090°55'2 0.5
2017-Sep-13 23:44N 29°34' W 090°57'2 5.2
2017-Sep-13 23:26N 29°34' W 090°55'2 4.9
2017-Sep-13 22:57N 29°32' W 090°53'2 4.4
2017-Sep-13 22:30N 29°32' W 090°51'2 4.6
2017-Sep-13 22:00N 29°32' W 090°48'2 4.2
2017-Sep-13 21:30N 29°32' W 090°46'2 3.9
2017-Sep-13 21:00N 29°34' W 090°44'1 3.0
2017-Sep-13 20:30N 29°35' W 090°43'2 3.7
2017-Sep-13 20:00N 29°37' W 090°42'1 1.7
2017-Sep-13 19:30N 29°37' W 090°41'2 3.9
2017-Sep-13 19:00N 29°35' W 090°43'1 2.3
2017-Sep-13 18:30N 29°34' W 090°43'0 0.6
2017-Sep-13 18:00N 29°34' W 090°43'0 0.0
2017-Sep-13 16:36N 29°34' W 090°43'0 0.1
2017-Sep-13 16:30N 29°34' W 090°43'1 1.4
2017-Sep-13 16:00N 29°34' W 090°43'2 4.9
2017-Sep-13 15:30N 29°33' W 090°45'3 6.2
2017-Sep-13 15:00N 29°32' W 090°49'11 2.6
2017-Sep-13 10:57N 29°37' W 090°60'4 4.8
2017-Sep-13 10:10N 29°34' W 090°57'1 5.0
2017-Sep-13 10:00N 29°34' W 090°56'2 4.8
2017-Sep-13 09:30N 29°33' W 090°54'2 3.4
2017-Sep-13 08:59N 29°32' W 090°52'2 4.7
2017-Sep-13 08:30N 29°32' W 090°49'2 5.0
2017-Sep-13 08:00N 29°32' W 090°46'2 3.3
2017-Sep-13 07:30N 29°33' W 090°45'1 2.4
2017-Sep-13 07:00N 29°34' W 090°44'1 2.6
2017-Sep-13 06:30N 29°33' W 090°42'0 0.7
2017-Sep-13 06:00N 29°34' W 090°42'0 0.7
2017-Sep-13 05:30N 29°34' W 090°42'1 1.8
2017-Sep-13 05:00N 29°34' W 090°43'0 0.0
2017-Sep-13 04:30N 29°34' W 090°43'0 0.0
2017-Sep-13 04:00N 29°34' W 090°43'0 0.0
2017-Sep-13 03:30N 29°34' W 090°43'0 0.0
2017-Sep-13 03:00N 29°34' W 090°43'0 0.0
2017-Sep-13 02:30N 29°34' W 090°43'0 0.0
2017-Sep-13 02:00N 29°34' W 090°43'0 0.0
2017-Sep-13 01:30N 29°34' W 090°43'0 0.0
2017-Sep-13 01:00N 29°34' W 090°43'0 0.0
2017-Sep-13 00:30N 29°34' W 090°43'0 0.0
2017-Sep-13 00:00N 29°34' W 090°43'0 0.0
2017-Sep-12 23:30N 29°34' W 090°43'0 0.0
2017-Sep-12 23:00N 29°34' W 090°43'0 0.0
2017-Sep-12 22:31N 29°34' W 090°43'0 0.0
2017-Sep-12 22:00N 29°34' W 090°43'0 0.0
2017-Sep-12 21:31N 29°34' W 090°43'0 0.0
2017-Sep-12 21:00N 29°34' W 090°43'0 0.0
2017-Sep-12 20:06N 29°34' W 090°43'0 0.1
2017-Sep-12 20:01N 29°34' W 090°43'0 0.0
2017-Sep-12 19:30N 29°34' W 090°43'0 0.0
2017-Sep-12 19:01N 29°34' W 090°43'0 0.0
2017-Sep-12 18:31N 29°34' W 090°43'0 0.0
2017-Sep-12 18:01N 29°34' W 090°43'0 0.0
2017-Sep-12 17:31N 29°34' W 090°43'0 0.8
2017-Sep-12 17:01N 29°34' W 090°42'0 0.1
2017-Sep-12 16:31N 29°34' W 090°42'0 0.9
2017-Sep-12 16:01N 29°34' W 090°43'0 0.0
2017-Sep-12 15:31N 29°34' W 090°43'0 0.0
2017-Sep-12 15:00N 29°34' W 090°43'0 0.0
2017-Sep-12 14:31N 29°34' W 090°43'0 0.0
2017-Sep-12 14:01N 29°34' W 090°43'0 0.0
2017-Sep-12 13:30N 29°34' W 090°43'0 0.0
2017-Sep-12 13:01N 29°34' W 090°43'0 0.0
2017-Sep-12 12:31N 29°34' W 090°43'0 0.0
2017-Sep-12 09:16N 29°34' W 090°43'0 0.0
2017-Sep-12 09:01N 29°34' W 090°43'0 0.0
2017-Sep-12 08:31N 29°34' W 090°43'0 0.0
2017-Sep-12 08:00N 29°34' W 090°43'0 0.0
2017-Sep-12 07:31N 29°34' W 090°43'0 0.0
2017-Sep-12 07:00N 29°34' W 090°43'0 0.0
2017-Sep-12 06:30N 29°34' W 090°43'0 0.0
2017-Sep-12 06:00N 29°34' W 090°43'0 0.0
2017-Sep-12 05:31N 29°34' W 090°43'0 0.0
2017-Sep-12 05:01N 29°34' W 090°43'0 0.0
2017-Sep-12 04:31N 29°34' W 090°43'0 0.0
2017-Sep-12 04:01N 29°34' W 090°43'0 0.0
2017-Sep-12 03:31N 29°34' W 090°43'0 0.0
2017-Sep-12 03:00N 29°34' W 090°43'0 0.0
2017-Sep-12 02:30N 29°34' W 090°43'0 0.0
2017-Sep-12 02:01N 29°34' W 090°43'0 0.0
2017-Sep-12 01:31N 29°34' W 090°43'0 0.0
2017-Sep-12 01:01N 29°34' W 090°43'0 0.0
2017-Sep-12 00:31N 29°34' W 090°43'0 0.0
2017-Sep-12 00:01N 29°34' W 090°43'0 0.0
2017-Sep-11 23:30N 29°34' W 090°43'0 0.0
2017-Sep-11 23:01N 29°34' W 090°43'0 0.0
2017-Sep-11 22:31N 29°34' W 090°43'0 0.0
2017-Sep-11 22:01N 29°34' W 090°43'0 0.0
2017-Sep-11 21:31N 29°34' W 090°43'0 0.0
2017-Sep-11 21:01N 29°34' W 090°43'0 0.0
2017-Sep-11 20:31N 29°34' W 090°43'0 0.0
2017-Sep-11 20:01N 29°34' W 090°43'0 0.0
2017-Sep-11 19:31N 29°34' W 090°43'0 0.0
2017-Sep-11 19:01N 29°34' W 090°43'0 0.0
2017-Sep-11 18:31N 29°34' W 090°43'0 0.0
2017-Sep-11 18:01N 29°34' W 090°43'0 0.0
2017-Sep-11 17:31N 29°34' W 090°43'0 0.0
2017-Sep-11 17:01N 29°34' W 090°43'0 0.0
2017-Sep-11 16:31N 29°34' W 090°43'0 0.0
2017-Sep-11 16:01N 29°34' W 090°43'0 0.0
2017-Sep-11 15:31N 29°34' W 090°43'0 0.0
2017-Sep-11 15:00N 29°34' W 090°43'0 0.0
2017-Sep-11 14:30N 29°34' W 090°43'0 0.0
2017-Sep-11 14:00N 29°34' W 090°43'0 0.0
2017-Sep-11 13:30N 29°34' W 090°43'0 0.0
2017-Sep-11 13:00N 29°34' W 090°43'0 0.0
2017-Sep-11 12:30N 29°34' W 090°43'0 0.0
2017-Sep-11 12:00N 29°34' W 090°43'0 0.0
2017-Sep-11 11:30N 29°34' W 090°43'0 0.0
2017-Sep-11 11:00N 29°34' W 090°43'0 0.0
2017-Sep-11 10:30N 29°34' W 090°43'0 0.0
2017-Sep-11 10:00N 29°34' W 090°43'0 0.0
2017-Sep-11 09:30N 29°34' W 090°43'0 0.0
2017-Sep-11 09:00N 29°34' W 090°43'0 0.0
2017-Sep-11 08:30N 29°34' W 090°43'0 0.0
2017-Sep-11 08:00N 29°34' W 090°43'  
Track history (hours):
 
Tides and Currents Weather Stations Pressure Air Temp Water Temp Dewpoint Dewpoint Depression Visibility Wind Speed Wind Dir Waves Ship Positions

Augusta

Owner: Monteiro Fleet , Inc., Houma, LA. More information available from US FCC via Universal Licensing System and Coast Guard Vessel Documentation Center.

Last reported at 2017-Sep-21 07:41 UTC. Time now 2017-Sep-23 03:49 UTC.
Position N 29°34' W 090°57'.

MMSI: 367650670.

Date/timePositionNaut miles runAvg speedWind from/ knotsBaromVisibWave heightAir tempDewpointWater temp
2017-Sep-21 07:41N 29°34' W 090°57'1 2.5
2017-Sep-21 07:24N 29°34' W 090°56'1 2.5
2017-Sep-21 07:00N 29°33' W 090°55'1 2.4
2017-Sep-21 06:26N 29°33' W 090°54'1 2.4
2017-Sep-21 05:57N 29°32' W 090°53'1 2.4
2017-Sep-21 05:28N 29°32' W 090°51'1 2.4
2017-Sep-21 05:00N 29°32' W 090°50'66 6.1
2017-Sep-20 18:12N 29°49' W 092°03'1 7.3
2017-Sep-20 18:00N 29°48' W 092°05'3 7.0
2017-Sep-20 17:31N 29°47' W 092°09'3 5.4
2017-Sep-20 17:00N 29°47' W 092°12'1 2.4
2017-Sep-20 16:30N 29°47' W 092°13'4 7.3
2017-Sep-20 15:59N 29°49' W 092°17'41 5.5
2017-Sep-20 08:34N 29°56' W 093°03'1 7.1
2017-Sep-20 08:27N 29°56' W 093°04'3 7.3
2017-Sep-20 08:00N 29°56' W 093°08'3 6.9
2017-Sep-20 07:30N 29°58' W 093°11'3 6.8
2017-Sep-20 07:00N 30°01' W 093°14'3 6.0
2017-Sep-20 06:31N 30°03' W 093°16'3 5.5
2017-Sep-20 06:00N 30°05' W 093°18'0 1.0
2017-Sep-20 05:31N 30°06' W 093°18'0 0.1
2017-Sep-20 05:01N 30°06' W 093°18'3 6.5
2017-Sep-20 04:31N 30°04' W 093°21'4 7.1
2017-Sep-20 04:01N 30°04' W 093°25'4 7.9
2017-Sep-20 03:30N 30°04' W 093°30'4 0.1
2017-Sep-18 14:01N 30°04' W 093°35'1 5.5
2017-Sep-18 13:49N 30°04' W 093°33'2 5.7
2017-Sep-18 13:30N 30°04' W 093°31'3 5.7
2017-Sep-18 13:00N 30°04' W 093°28'3 5.7
2017-Sep-18 12:30N 30°04' W 093°25'3 5.7
2017-Sep-18 12:00N 30°04' W 093°21'2 3.7
2017-Sep-18 11:30N 30°05' W 093°20'2 4.3
2017-Sep-18 11:00N 30°05' W 093°18'2 4.5
2017-Sep-18 10:30N 30°04' W 093°16'2 4.7
2017-Sep-18 10:00N 30°02' W 093°14'2 3.3
2017-Sep-18 09:30N 30°00' W 093°14'3 6.2
2017-Sep-18 09:00N 29°58' W 093°11'3 5.8
2017-Sep-18 08:30N 29°56' W 093°09'43 5.5
2017-Sep-18 00:36N 29°50' W 092°19'1 5.5
2017-Sep-18 00:28N 29°50' W 092°18'3 5.4
2017-Sep-17 23:52N 29°48' W 092°15'2 5.9
2017-Sep-17 23:30N 29°47' W 092°13'2 4.6
2017-Sep-17 23:00N 29°47' W 092°11'3 5.7
2017-Sep-17 22:30N 29°47' W 092°07'3 5.6
2017-Sep-17 21:57N 29°48' W 092°04'65 5.1
2017-Sep-17 09:13N 29°32' W 090°52'1 5.5
2017-Sep-17 09:00N 29°32' W 090°51'3 5.4
2017-Sep-17 08:30N 29°32' W 090°48'2 4.6
2017-Sep-17 08:00N 29°33' W 090°45'2 4.7
2017-Sep-17 07:30N 29°34' W 090°43'2 4.6
2017-Sep-17 07:00N 29°37' W 090°42'3 5.2
2017-Sep-17 06:30N 29°36' W 090°40'3 5.5
2017-Sep-17 06:00N 29°35' W 090°37'3 5.3
2017-Sep-17 05:30N 29°34' W 090°34'4 5.5
2017-Sep-17 04:51N 29°34' W 090°30'2 0.1
2017-Sep-16 01:52N 29°34' W 090°32'3 7.3
2017-Sep-16 01:30N 29°35' W 090°35'3 5.3
2017-Sep-16 01:00N 29°35' W 090°38'3 6.6
2017-Sep-16 00:30N 29°37' W 090°41'2 4.1
2017-Sep-16 00:00N 29°35' W 090°43'1 2.0
2017-Sep-15 23:30N 29°34' W 090°43'0 0.7
2017-Sep-15 23:00N 29°34' W 090°43'0 0.2
2017-Sep-15 22:30N 29°34' W 090°43'0 0.0
2017-Sep-15 22:00N 29°34' W 090°43'0 0.0
2017-Sep-15 21:30N 29°34' W 090°43'0 0.0
2017-Sep-15 21:00N 29°34' W 090°43'0 0.0
2017-Sep-15 20:30N 29°34' W 090°43'0 0.0
2017-Sep-15 20:00N 29°34' W 090°43'0 0.0
2017-Sep-15 19:30N 29°34' W 090°43'0 0.0
2017-Sep-15 19:00N 29°34' W 090°43'0 0.0
2017-Sep-15 18:30N 29°34' W 090°43'0 0.0
2017-Sep-15 18:00N 29°34' W 090°43'0 0.0
2017-Sep-15 17:30N 29°34' W 090°43'0 0.0
2017-Sep-15 17:00N 29°34' W 090°43'0 0.0
2017-Sep-15 16:30N 29°34' W 090°43'0 0.0
2017-Sep-15 16:00N 29°34' W 090°43'0 0.0
2017-Sep-15 15:30N 29°34' W 090°43'0 0.0
2017-Sep-15 15:00N 29°34' W 090°43'0 0.0
2017-Sep-15 14:30N 29°34' W 090°43'0 0.0
2017-Sep-15 14:00N 29°34' W 090°43'0 0.0
2017-Sep-15 13:30N 29°34' W 090°43'0 0.0
2017-Sep-15 13:00N 29°34' W 090°43'0 0.0
2017-Sep-15 12:30N 29°34' W 090°43'0 0.0
2017-Sep-15 12:00N 29°34' W 090°43'0 0.0
2017-Sep-15 11:30N 29°34' W 090°43'0 0.0
2017-Sep-15 11:00N 29°34' W 090°43'0 0.0
2017-Sep-15 10:30N 29°34' W 090°43'0 0.0
2017-Sep-15 10:00N 29°34' W 090°43'0 0.0
2017-Sep-15 09:30N 29°34' W 090°43'0 0.0
2017-Sep-15 09:00N 29°34' W 090°43'0 0.0
2017-Sep-15 08:30N 29°34' W 090°43'0 0.0
2017-Sep-15 08:00N 29°34' W 090°43'0 0.0
2017-Sep-15 07:30N 29°34' W 090°43'0 0.0
2017-Sep-15 07:00N 29°34' W 090°43'0 0.0
2017-Sep-15 06:30N 29°34' W 090°43'0 0.0
2017-Sep-15 06:00N 29°34' W 090°43'0 0.0
2017-Sep-15 05:30N 29°34' W 090°43'0 0.0
2017-Sep-15 05:00N 29°34' W 090°43'0 0.0
2017-Sep-15 04:30N 29°34' W 090°43'0 0.0
2017-Sep-15 04:00N 29°34' W 090°43'0 0.0
2017-Sep-15 03:30N 29°34' W 090°43'0 0.0
2017-Sep-15 03:00N 29°34' W 090°43'0 0.0
2017-Sep-15 02:30N 29°34' W 090°43'0 0.0
2017-Sep-15 02:00N 29°34' W 090°43'0 0.0
2017-Sep-15 01:30N 29°34' W 090°43'0 0.0
2017-Sep-15 01:00N 29°34' W 090°43'0 0.0
2017-Sep-15 00:30N 29°34' W 090°43'0 0.0
2017-Sep-15 00:00N 29°34' W 090°43'0 0.0
2017-Sep-14 23:30N 29°34' W 090°43'0 0.0
2017-Sep-14 23:00N 29°34' W 090°43'0 0.0
2017-Sep-14 22:30N 29°34' W 090°43'0 0.0
2017-Sep-14 22:00N 29°34' W 090°43'0 0.0
2017-Sep-14 21:30N 29°34' W 090°43'0 0.0
2017-Sep-14 21:00N 29°34' W 090°43'0 0.0
2017-Sep-14 20:30N 29°34' W 090°43'0 0.0
2017-Sep-14 20:00N 29°34' W 090°43'0 0.0
2017-Sep-14 19:30N 29°34' W 090°43'0 0.0
2017-Sep-14 19:00N 29°34' W 090°43'0 0.0
2017-Sep-14 18:30N 29°34' W 090°43'0 0.0
2017-Sep-14 18:00N 29°34' W 090°43'0 0.0
2017-Sep-14 17:30N 29°34' W 090°43'0 0.0
2017-Sep-14 17:00N 29°34' W 090°43'0 0.0
2017-Sep-14 16:30N 29°34' W 090°43'0 0.0
2017-Sep-14 16:00N 29°34' W 090°43'0 0.0
2017-Sep-14 15:30N 29°34' W 090°43'0 0.0
2017-Sep-14 15:00N 29°34' W 090°43'0 0.0
2017-Sep-14 14:30N 29°34' W 090°43'2 3.5
2017-Sep-14 14:00N 29°33' W 090°42'0 0.3
2017-Sep-14 13:30N 29°32' W 090°42'0 0.7
2017-Sep-14 13:00N 29°33' W 090°42'0 0.0
2017-Sep-14 12:30N 29°33' W 090°42'0 0.1
2017-Sep-14 12:00N 29°33' W 090°42'0 0.3
2017-Sep-14 11:30N 29°33' W 090°42'0 0.0
2017-Sep-14 11:00N 29°33' W 090°42'0 0.0
2017-Sep-14 10:30N 29°33' W 090°42'0 0.0
2017-Sep-14 10:00N 29°33' W 090°42'0 0.0
2017-Sep-14 09:30N 29°33' W 090°42'0 0.0
2017-Sep-14 09:00N 29°33' W 090°42'0 0.0
2017-Sep-14 08:30N 29°33' W 090°42'0 0.0
2017-Sep-14 08:00N 29°33' W 090°42'0 0.0
2017-Sep-14 07:30N 29°33' W 090°42'0 0.0
2017-Sep-14 07:00N 29°33' W 090°42'0 0.0
2017-Sep-14 06:30N 29°33' W 090°42'0 0.0
2017-Sep-14 06:00N 29°33' W 090°42'0 0.0
2017-Sep-14 05:30N 29°33' W 090°42'1 1.9
2017-Sep-14 05:00N 29°33' W 090°43'2 5.0
2017-Sep-14 04:30N 29°33' W 090°45'4 7.4
2017-Sep-14 04:00N 29°32' W 090°50'5 8.0
2017-Sep-14 03:23N 29°33' W 090°55'2 0.5
2017-Sep-13 23:44N 29°34' W 090°57'2 5.2
2017-Sep-13 23:26N 29°34' W 090°55'2 4.9
2017-Sep-13 22:57N 29°32' W 090°53'2 4.4
2017-Sep-13 22:30N 29°32' W 090°51'2 4.6
2017-Sep-13 22:00N 29°32' W 090°48'2 4.2
2017-Sep-13 21:30N 29°32' W 090°46'2 3.9
2017-Sep-13 21:00N 29°34' W 090°44'1 3.0
2017-Sep-13 20:30N 29°35' W 090°43'2 3.7
2017-Sep-13 20:00N 29°37' W 090°42'1 1.7
2017-Sep-13 19:30N 29°37' W 090°41'2 3.9
2017-Sep-13 19:00N 29°35' W 090°43'1 2.3
2017-Sep-13 18:30N 29°34' W 090°43'0 0.6
2017-Sep-13 18:00N 29°34' W 090°43'0 0.0
2017-Sep-13 16:36N 29°34' W 090°43'0 0.1
2017-Sep-13 16:30N 29°34' W 090°43'1 1.4
2017-Sep-13 16:00N 29°34' W 090°43'2 4.9
2017-Sep-13 15:30N 29°33' W 090°45'3 6.2
2017-Sep-13 15:00N 29°32' W 090°49'11 2.6
2017-Sep-13 10:57N 29°37' W 090°60'4 4.8
2017-Sep-13 10:10N 29°34' W 090°57'1 5.0
2017-Sep-13 10:00N 29°34' W 090°56'2 4.8
2017-Sep-13 09:30N 29°33' W 090°54'2 3.4
2017-Sep-13 08:59N 29°32' W 090°52'2 4.7
2017-Sep-13 08:30N 29°32' W 090°49'2 5.0
2017-Sep-13 08:00N 29°32' W 090°46'2 3.3
2017-Sep-13 07:30N 29°33' W 090°45'1 2.4
2017-Sep-13 07:00N 29°34' W 090°44'1 2.6
2017-Sep-13 06:30N 29°33' W 090°42'0 0.7
2017-Sep-13 06:00N 29°34' W 090°42'0 0.7
2017-Sep-13 05:30N 29°34' W 090°42'1 1.8
2017-Sep-13 05:00N 29°34' W 090°43'0 0.0
2017-Sep-13 04:30N 29°34' W 090°43'0 0.0
2017-Sep-13 04:00N 29°34' W 090°43'0 0.0
2017-Sep-13 03:30N 29°34' W 090°43'0 0.0
2017-Sep-13 03:00N 29°34' W 090°43'0 0.0
2017-Sep-13 02:30N 29°34' W 090°43'0 0.0
2017-Sep-13 02:00N 29°34' W 090°43'0 0.0
2017-Sep-13 01:30N 29°34' W 090°43'0 0.0
2017-Sep-13 01:00N 29°34' W 090°43'0 0.0
2017-Sep-13 00:30N 29°34' W 090°43'0 0.0
2017-Sep-13 00:00N 29°34' W 090°43'0 0.0
2017-Sep-12 23:30N 29°34' W 090°43'0 0.0
2017-Sep-12 23:00N 29°34' W 090°43'0 0.0
2017-Sep-12 22:31N 29°34' W 090°43'0 0.0
2017-Sep-12 22:00N 29°34' W 090°43'0 0.0
2017-Sep-12 21:31N 29°34' W 090°43'0 0.0
2017-Sep-12 21:00N 29°34' W 090°43'0 0.0
2017-Sep-12 20:06N 29°34' W 090°43'0 0.1
2017-Sep-12 20:01N 29°34' W 090°43'0 0.0
2017-Sep-12 19:30N 29°34' W 090°43'0 0.0
2017-Sep-12 19:01N 29°34' W 090°43'0 0.0
2017-Sep-12 18:31N 29°34' W 090°43'0 0.0
2017-Sep-12 18:01N 29°34' W 090°43'0 0.0
2017-Sep-12 17:31N 29°34' W 090°43'0 0.8
2017-Sep-12 17:01N 29°34' W 090°42'0 0.1
2017-Sep-12 16:31N 29°34' W 090°42'0 0.9
2017-Sep-12 16:01N 29°34' W 090°43'0 0.0
2017-Sep-12 15:31N 29°34' W 090°43'0 0.0
2017-Sep-12 15:00N 29°34' W 090°43'0 0.0
2017-Sep-12 14:31N 29°34' W 090°43'0 0.0
2017-Sep-12 14:01N 29°34' W 090°43'0 0.0
2017-Sep-12 13:30N 29°34' W 090°43'0 0.0
2017-Sep-12 13:01N 29°34' W 090°43'0 0.0
2017-Sep-12 12:31N 29°34' W 090°43'0 0.0
2017-Sep-12 09:16N 29°34' W 090°43'0 0.0
2017-Sep-12 09:01N 29°34' W 090°43'0 0.0
2017-Sep-12 08:31N 29°34' W 090°43'0 0.0
2017-Sep-12 08:00N 29°34' W 090°43'0 0.0
2017-Sep-12 07:31N 29°34' W 090°43'0 0.0
2017-Sep-12 07:00N 29°34' W 090°43'0 0.0
2017-Sep-12 06:30N 29°34' W 090°43'0 0.0
2017-Sep-12 06:00N 29°34' W 090°43'0 0.0
2017-Sep-12 05:31N 29°34' W 090°43'0 0.0
2017-Sep-12 05:01N 29°34' W 090°43'0 0.0
2017-Sep-12 04:31N 29°34' W 090°43'0 0.0
2017-Sep-12 04:01N 29°34' W 090°43'0 0.0
2017-Sep-12 03:31N 29°34' W 090°43'0 0.0
2017-Sep-12 03:00N 29°34' W 090°43'0 0.0
2017-Sep-12 02:30N 29°34' W 090°43'0 0.0
2017-Sep-12 02:01N 29°34' W 090°43'0 0.0
2017-Sep-12 01:31N 29°34' W 090°43'0 0.0
2017-Sep-12 01:01N 29°34' W 090°43'0 0.0
2017-Sep-12 00:31N 29°34' W 090°43'0 0.0
2017-Sep-12 00:01N 29°34' W 090°43'0 0.0
2017-Sep-11 23:30N 29°34' W 090°43'0 0.0
2017-Sep-11 23:01N 29°34' W 090°43'0 0.0
2017-Sep-11 22:31N 29°34' W 090°43'0 0.0
2017-Sep-11 22:01N 29°34' W 090°43'0 0.0
2017-Sep-11 21:31N 29°34' W 090°43'0 0.0
2017-Sep-11 21:01N 29°34' W 090°43'0 0.0
2017-Sep-11 20:31N 29°34' W 090°43'0 0.0
2017-Sep-11 20:01N 29°34' W 090°43'0 0.0
2017-Sep-11 19:31N 29°34' W 090°43'0 0.0
2017-Sep-11 19:01N 29°34' W 090°43'0 0.0
2017-Sep-11 18:31N 29°34' W 090°43'0 0.0
2017-Sep-11 18:01N 29°34' W 090°43'0 0.0
2017-Sep-11 17:31N 29°34' W 090°43'0 0.0
2017-Sep-11 17:01N 29°34' W 090°43'0 0.0
2017-Sep-11 16:31N 29°34' W 090°43'0 0.0
2017-Sep-11 16:01N 29°34' W 090°43'0 0.0
2017-Sep-11 15:31N 29°34' W 090°43'0 0.0
2017-Sep-11 15:00N 29°34' W 090°43'0 0.0
2017-Sep-11 14:30N 29°34' W 090°43'0 0.0
2017-Sep-11 14:00N 29°34' W 090°43'0 0.0
2017-Sep-11 13:30N 29°34' W 090°43'0 0.0
2017-Sep-11 13:00N 29°34' W 090°43'0 0.0
2017-Sep-11 12:30N 29°34' W 090°43'0 0.0
2017-Sep-11 12:00N 29°34' W 090°43'0 0.0
2017-Sep-11 11:30N 29°34' W 090°43'0 0.0
2017-Sep-11 11:00N 29°34' W 090°43'0 0.0
2017-Sep-11 10:30N 29°34' W 090°43'0 0.0
2017-Sep-11 10:00N 29°34' W 090°43'0 0.0
2017-Sep-11 09:30N 29°34' W 090°43'0 0.0
2017-Sep-11 09:00N 29°34' W 090°43'0 0.0
2017-Sep-11 08:30N 29°34' W 090°43'0 0.0
2017-Sep-11 08:00N 29°34' W 090°43'  

Dump ship's entire track history